Overview Statistics Trail Chart Weather Telemetry Raw packets
 

This is the latest recevied weather packets stored in our database for station/object OE-11190. If no packets are shown the sender has not sent any weather packets the latest 10 day(s).

<< 6 7 8 9 10 11 12 >>
Time Temp. Humidity Pressure Rain* Wind** Luminosity Snow
1788279081 27.78° C 30% 1018.2 hPa 0 mm - 243 W/m² -
1788278707 27.78° C 31% 1018.2 hPa 0 mm - 258 W/m² -
1788278108 27.78° C 30% 1018.1 hPa 0 mm - 281 W/m² -
1788277281 27.78° C 31% 1018.1 hPa 0 mm - 303 W/m² -
1788276908 27.78° C 31% 1018.1 hPa 0 mm - 334 W/m² -
1788276308 27.78° C 31% 1018.1 hPa 0 mm - 356 W/m² -
1788275481 27.78° C 31% 1018.2 hPa 0 mm - 387 W/m² -
1788275126 27.78° C 30% 1018.2 hPa 0 mm - 409 W/m² -
1788274507 27.78° C 31% 1018.2 hPa 0 mm - 417 W/m² -
1788273681 27.78° C 29% 1018.2 hPa 0 mm - 463 W/m² -
1788273326 27.78° C 32% 1018.3 hPa 0 mm - 455 W/m² -
1788272708 27.78° C 31% 1018.4 hPa 0 mm - 432 W/m² -
1788271881 27.78° C 31% 1018.3 hPa 0 mm - 531 W/m² -
1788271507 27.78° C 33% 1018.4 hPa 0 mm - 569 W/m² -
1788270908 27.22° C 33% 1018.5 hPa 0 mm - 553 W/m² -
1788270081 27.78° C 32% 1018.5 hPa 0 mm - 591 W/m² -
1788269708 27.22° C 32% 1018.7 hPa 0 mm - 546 W/m² -
1788269108 27.78° C 32% 1018.7 hPa 0 mm - 660 W/m² -
1788268281 27.22° C 33% 1018.9 hPa 0 mm - 728 W/m² -
1788267308 26.67° C 34% 1019 hPa 0 mm - 629 W/m² -
1788266480 27.22° C 33% 1019.2 hPa 0 mm - 713 W/m² -
1788266108 26.67° C 35% 1019.2 hPa 0 mm - 705 W/m² -
1788265508 26.67° C 35% 1019.3 hPa 0 mm - 682 W/m² -
1788264680 27.22° C 36% 1019.4 hPa 0 mm - 713 W/m² -
1788264308 26.11° C 36% 1019.4 hPa 0 mm - 402 W/m² -

* Rain latest hour (hover to see other rain measurements)
** Current wind speed in m/s (hover to see current wind gust speed)